sensor_id;sensor_type;location;lat;lon;timestamp;pressure;altitude;pressure_sealevel;temperature;humidity
61136;BME280;47021;51.340;12.432;2023-02-14T00:01:15;102265.81;;;9.36;64.96
61136;BME280;47021;51.340;12.432;2023-02-14T00:03:43;102259.50;;;9.42;64.58
61136;BME280;47021;51.340;12.432;2023-02-14T00:06:15;102260.00;;;9.50;64.41
61136;BME280;47021;51.340;12.432;2023-02-14T00:08:41;102263.25;;;9.55;64.54
61136;BME280;47021;51.340;12.432;2023-02-14T00:11:19;102272.19;;;9.49;64.60
61136;BME280;47021;51.340;12.432;2023-02-14T00:13:52;102270.75;;;9.42;65.11
61136;BME280;47021;51.340;12.432;2023-02-14T00:16:19;102266.72;;;9.35;65.31
61136;BME280;47021;51.340;12.432;2023-02-14T00:18:44;102262.53;;;9.33;65.58
61136;BME280;47021;51.340;12.432;2023-02-14T00:21:09;102267.69;;;9.53;65.02
61136;BME280;47021;51.340;12.432;2023-02-14T00:23:36;102258.94;;;9.54;64.64
61136;BME280;47021;51.340;12.432;2023-02-14T00:26:02;102253.88;;;9.51;64.39
61136;BME280;47021;51.340;12.432;2023-02-14T00:28:34;102253.38;;;9.43;64.89
61136;BME280;47021;51.340;12.432;2023-02-14T00:31:00;102250.56;;;9.47;64.71
61136;BME280;47021;51.340;12.432;2023-02-14T00:33:25;102249.00;;;9.43;64.93
61136;BME280;47021;51.340;12.432;2023-02-14T00:38:35;102252.56;;;9.02;66.17
61136;BME280;47021;51.340;12.432;2023-02-14T00:41:00;102248.38;;;9.18;65.95
61136;BME280;47021;51.340;12.432;2023-02-14T00:43:25;102248.50;;;9.15;65.96
61136;BME280;47021;51.340;12.432;2023-02-14T00:45:50;102245.94;;;9.34;64.94
61136;BME280;47021;51.340;12.432;2023-02-14T00:48:16;102249.84;;;9.44;64.80
61136;BME280;47021;51.340;12.432;2023-02-14T00:50:43;102245.66;;;9.40;65.31
61136;BME280;47021;51.340;12.432;2023-02-14T00:53:08;102248.94;;;9.45;64.66
61136;BME280;47021;51.340;12.432;2023-02-14T00:55:35;102244.84;;;9.39;65.33
61136;BME280;47021;51.340;12.432;2023-02-14T00:58:06;102244.56;;;9.45;65.22
61136;BME280;47021;51.340;12.432;2023-02-14T01:03:33;102249.78;;;8.65;68.40
61136;BME280;47021;51.340;12.432;2023-02-14T01:06:00;102247.06;;;8.88;67.31
61136;BME280;47021;51.340;12.432;2023-02-14T01:08:25;102253.06;;;9.10;66.54
61136;BME280;47021;51.340;12.432;2023-02-14T01:10:52;102243.94;;;9.20;66.18
61136;BME280;47021;51.340;12.432;2023-02-14T01:13:25;102248.19;;;9.02;66.99
61136;BME280;47021;51.340;12.432;2023-02-14T01:16:06;102236.25;;;8.97;66.89
61136;BME280;47021;51.340;12.432;2023-02-14T01:18:34;102236.50;;;9.31;65.64
61136;BME280;47021;51.340;12.432;2023-02-14T01:23:51;102230.31;;;8.73;67.62
61136;BME280;47021;51.340;12.432;2023-02-14T01:26:16;102238.66;;;9.01;66.63
61136;BME280;47021;51.340;12.432;2023-02-14T01:28:48;102232.38;;;9.07;66.62
61136;BME280;47021;51.340;12.432;2023-02-14T01:31:15;102241.91;;;9.27;65.92
61136;BME280;47021;51.340;12.432;2023-02-14T01:33:42;102229.94;;;9.22;65.83
61136;BME280;47021;51.340;12.432;2023-02-14T01:39:02;102227.28;;;9.43;65.38
61136;BME280;47021;51.340;12.432;2023-02-14T01:41:29;102220.03;;;9.49;64.93
61136;BME280;47021;51.340;12.432;2023-02-14T01:43:56;102217.19;;;9.35;65.53
61136;BME280;47021;51.340;12.432;2023-02-14T01:46:25;102216.19;;;9.19;65.90
61136;BME280;47021;51.340;12.432;2023-02-14T01:52:04;102221.25;;;9.22;65.74
61136;BME280;47021;51.340;12.432;2023-02-14T01:54:32;102220.59;;;9.37;65.58
61136;BME280;47021;51.340;12.432;2023-02-14T01:57:18;102221.59;;;9.35;65.23
61136;BME280;47021;51.340;12.432;2023-02-14T01:59:55;102222.06;;;9.43;65.29
61136;BME280;47021;51.340;12.432;2023-02-14T02:02:25;102221.03;;;9.28;65.44
61136;BME280;47021;51.340;12.432;2023-02-14T02:04:52;102219.59;;;9.40;65.41
61136;BME280;47021;51.340;12.432;2023-02-14T02:07:22;102219.81;;;9.35;65.40
61136;BME280;47021;51.340;12.432;2023-02-14T02:09:51;102213.56;;;9.39;65.42
61136;BME280;47021;51.340;12.432;2023-02-14T02:12:21;102214.81;;;9.49;65.13
61136;BME280;47021;51.340;12.432;2023-02-14T02:14:49;102213.41;;;9.42;64.79
61136;BME280;47021;51.340;12.432;2023-02-14T02:25:24;102208.78;;;8.90;66.54
61136;BME280;47021;51.340;12.432;2023-02-14T02:36:06;102198.63;;;9.43;65.35
61136;BME280;47021;51.340;12.432;2023-02-14T02:46:59;102199.66;;;9.39;65.38
61136;BME280;47021;51.340;12.432;2023-02-14T02:51:56;102197.00;;;9.40;65.17
61136;BME280;47021;51.340;12.432;2023-02-14T02:54:27;102194.53;;;9.37;65.13
61136;BME280;47021;51.340;12.432;2023-02-14T02:57:02;102182.28;;;9.39;65.46
61136;BME280;47021;51.340;12.432;2023-02-14T02:59:32;102185.25;;;9.50;64.98
61136;BME280;47021;51.340;12.432;2023-02-14T03:02:10;102191.56;;;9.45;65.21
61136;BME280;47021;51.340;12.432;2023-02-14T03:04:38;102187.72;;;9.53;64.94
61136;BME280;47021;51.340;12.432;2023-02-14T03:09:50;102189.72;;;9.47;64.82
61136;BME280;47021;51.340;12.432;2023-02-14T03:26:18;102196.09;;;9.41;65.38
61136;BME280;47021;51.340;12.432;2023-02-14T03:31:53;102200.25;;;9.45;65.29
61136;BME280;47021;51.340;12.432;2023-02-14T03:42:19;102207.41;;;9.40;65.10
61136;BME280;47021;51.340;12.432;2023-02-14T03:47:31;102216.41;;;9.33;65.30
61136;BME280;47021;51.340;12.432;2023-02-14T03:52:42;102204.25;;;9.34;65.33
61136;BME280;47021;51.340;12.432;2023-02-14T03:55:12;102209.91;;;9.43;64.96
61136;BME280;47021;51.340;12.432;2023-02-14T04:00:30;102209.56;;;9.31;65.14
61136;BME280;47021;51.340;12.432;2023-02-14T04:02:59;102199.97;;;9.33;65.14
61136;BME280;47021;51.340;12.432;2023-02-14T04:05:26;102206.66;;;9.38;65.08
61136;BME280;47021;51.340;12.432;2023-02-14T04:07:54;102205.88;;;9.36;64.80
61136;BME280;47021;51.340;12.432;2023-02-14T04:10:26;102198.69;;;9.41;64.80
61136;BME280;47021;51.340;12.432;2023-02-14T04:12:52;102201.97;;;9.26;65.15
61136;BME280;47021;51.340;12.432;2023-02-14T04:15:17;102197.88;;;9.20;65.31
61136;BME280;47021;51.340;12.432;2023-02-14T04:17:42;102200.28;;;9.25;65.01
61136;BME280;47021;51.340;12.432;2023-02-14T04:20:09;102196.25;;;9.18;65.07
61136;BME280;47021;51.340;12.432;2023-02-14T04:22:35;102190.28;;;9.16;65.54
61136;BME280;47021;51.340;12.432;2023-02-14T04:25:01;102199.72;;;9.18;65.18
61136;BME280;47021;51.340;12.432;2023-02-14T04:27:33;102202.13;;;9.23;65.34
61136;BME280;47021;51.340;12.432;2023-02-14T04:29:59;102185.88;;;8.98;66.00
61136;BME280;47021;51.340;12.432;2023-02-14T04:32:26;102182.94;;;9.24;65.02
61136;BME280;47021;51.340;12.432;2023-02-14T04:37:35;102176.06;;;9.23;64.82
61136;BME280;47021;51.340;12.432;2023-02-14T04:42:44;102169.75;;;9.08;64.89
61136;BME280;47021;51.340;12.432;2023-02-14T04:45:10;102177.25;;;9.16;65.06
61136;BME280;47021;51.340;12.432;2023-02-14T04:47:36;102171.09;;;9.17;64.56
61136;BME280;47021;51.340;12.432;2023-02-14T04:52:40;102174.97;;;9.08;65.07
61136;BME280;47021;51.340;12.432;2023-02-14T04:55:19;102167.66;;;8.96;65.39
61136;BME280;47021;51.340;12.432;2023-02-14T04:57:46;102171.88;;;9.00;65.48
61136;BME280;47021;51.340;12.432;2023-02-14T05:00:11;102167.25;;;9.05;65.34
61136;BME280;47021;51.340;12.432;2023-02-14T05:05:27;102169.66;;;9.10;64.87
61136;BME280;47021;51.340;12.432;2023-02-14T05:07:53;102165.72;;;9.01;65.14
61136;BME280;47021;51.340;12.432;2023-02-14T05:10:20;102172.84;;;8.98;65.13
61136;BME280;47021;51.340;12.432;2023-02-14T05:12:58;102170.72;;;9.06;64.96
61136;BME280;47021;51.340;12.432;2023-02-14T05:18:01;102168.28;;;8.83;65.51
61136;BME280;47021;51.340;12.432;2023-02-14T05:20:27;102162.03;;;8.87;65.37
61136;BME280;47021;51.340;12.432;2023-02-14T05:25:22;102158.09;;;8.97;65.25
61136;BME280;47021;51.340;12.432;2023-02-14T05:27:48;102160.06;;;8.92;65.12
61136;BME280;47021;51.340;12.432;2023-02-14T05:30:14;102162.53;;;8.95;64.96
61136;BME280;47021;51.340;12.432;2023-02-14T05:32:45;102150.69;;;8.88;65.02
61136;BME280;47021;51.340;12.432;2023-02-14T05:35:11;102156.84;;;8.87;65.27
61136;BME280;47021;51.340;12.432;2023-02-14T05:37:42;102150.63;;;8.89;65.32
61136;BME280;47021;51.340;12.432;2023-02-14T05:40:08;102154.34;;;8.84;65.36
61136;BME280;47021;51.340;12.432;2023-02-14T05:42:34;102159.84;;;8.96;65.04
61136;BME280;47021;51.340;12.432;2023-02-14T05:47:42;102151.63;;;8.87;65.56
61136;BME280;47021;51.340;12.432;2023-02-14T05:50:07;102147.97;;;8.91;65.01
61136;BME280;47021;51.340;12.432;2023-02-14T05:52:33;102163.59;;;8.91;65.00
61136;BME280;47021;51.340;12.432;2023-02-14T05:55:00;102159.63;;;8.82;65.62
61136;BME280;47021;51.340;12.432;2023-02-14T05:57:27;102157.66;;;8.87;65.27
61136;BME280;47021;51.340;12.432;2023-02-14T05:59:58;102158.19;;;8.75;65.73
61136;BME280;47021;51.340;12.432;2023-02-14T06:02:23;102155.69;;;8.92;65.04
61136;BME280;47021;51.340;12.432;2023-02-14T06:04:48;102163.13;;;9.01;64.93
61136;BME280;47021;51.340;12.432;2023-02-14T06:09:58;102162.09;;;8.85;65.26
61136;BME280;47021;51.340;12.432;2023-02-14T06:12:24;102167.38;;;8.84;65.40
61136;BME280;47021;51.340;12.432;2023-02-14T06:17:40;102160.34;;;8.86;65.18
61136;BME280;47021;51.340;12.432;2023-02-14T06:20:06;102156.78;;;8.68;65.79
61136;BME280;47021;51.340;12.432;2023-02-14T06:22:43;102164.31;;;8.74;65.77
61136;BME280;47021;51.340;12.432;2023-02-14T06:33:38;102164.81;;;9.02;64.58
61136;BME280;47021;51.340;12.432;2023-02-14T06:36:04;102166.84;;;8.76;65.34
61136;BME280;47021;51.340;12.432;2023-02-14T06:38:31;102161.88;;;8.90;65.22
61136;BME280;47021;51.340;12.432;2023-02-14T06:41:06;102164.25;;;8.96;64.72
61136;BME280;47021;51.340;12.432;2023-02-14T06:43:45;102161.56;;;8.97;64.77
61136;BME280;47021;51.340;12.432;2023-02-14T06:46:11;102161.34;;;9.02;64.77
61136;BME280;47021;51.340;12.432;2023-02-14T06:48:37;102166.91;;;8.94;64.77
61136;BME280;47021;51.340;12.432;2023-02-14T06:51:15;102159.59;;;9.02;64.59
61136;BME280;47021;51.340;12.432;2023-02-14T06:53:40;102158.63;;;9.05;64.64
61136;BME280;47021;51.340;12.432;2023-02-14T06:56:07;102160.78;;;8.95;64.69
61136;BME280;47021;51.340;12.432;2023-02-14T06:58:34;102162.88;;;9.07;64.57
61136;BME280;47021;51.340;12.432;2023-02-14T07:01:11;102163.56;;;9.11;64.48
61136;BME280;47021;51.340;12.432;2023-02-14T07:03:50;102160.06;;;9.12;64.52
61136;BME280;47021;51.340;12.432;2023-02-14T07:06:18;102157.28;;;9.15;64.16
61136;BME280;47021;51.340;12.432;2023-02-14T07:08:43;102158.06;;;9.17;64.38
61136;BME280;47021;51.340;12.432;2023-02-14T07:11:15;102157.97;;;9.00;64.78
61136;BME280;47021;51.340;12.432;2023-02-14T07:13:41;102155.63;;;9.14;63.85
61136;BME280;47021;51.340;12.432;2023-02-14T07:16:07;102159.44;;;9.26;63.75
61136;BME280;47021;51.340;12.432;2023-02-14T07:18:32;102154.06;;;9.29;63.42
61136;BME280;47021;51.340;12.432;2023-02-14T07:20:57;102153.50;;;9.22;63.57
61136;BME280;47021;51.340;12.432;2023-02-14T07:23:24;102162.44;;;9.35;63.32
61136;BME280;47021;51.340;12.432;2023-02-14T07:25:50;102153.59;;;9.39;63.51
61136;BME280;47021;51.340;12.432;2023-02-14T07:28:16;102151.75;;;9.41;63.35
61136;BME280;47021;51.340;12.432;2023-02-14T07:30:42;102150.00;;;9.42;63.03
61136;BME280;47021;51.340;12.432;2023-02-14T07:33:09;102155.91;;;9.45;63.06
61136;BME280;47021;51.340;12.432;2023-02-14T07:35:34;102152.19;;;9.51;62.84
61136;BME280;47021;51.340;12.432;2023-02-14T07:37:59;102147.88;;;9.50;62.36
61136;BME280;47021;51.340;12.432;2023-02-14T07:40:25;102163.66;;;9.47;63.00
61136;BME280;47021;51.340;12.432;2023-02-14T07:42:53;102152.41;;;9.46;63.10
61136;BME280;47021;51.340;12.432;2023-02-14T07:45:20;102137.78;;;9.61;62.73
61136;BME280;47021;51.340;12.432;2023-02-14T07:47:49;102139.06;;;9.71;62.06
61136;BME280;47021;51.340;12.432;2023-02-14T07:50:15;102130.94;;;9.77;61.70
61136;BME280;47021;51.340;12.432;2023-02-14T07:52:41;102133.41;;;9.80;61.98
61136;BME280;47021;51.340;12.432;2023-02-14T07:55:08;102137.91;;;9.76;62.07
61136;BME280;47021;51.340;12.432;2023-02-14T07:57:39;102139.72;;;9.93;61.80
61136;BME280;47021;51.340;12.432;2023-02-14T08:00:06;102134.44;;;9.94;61.67
61136;BME280;47021;51.340;12.432;2023-02-14T08:02:33;102136.09;;;9.78;62.13
61136;BME280;47021;51.340;12.432;2023-02-14T08:04:58;102129.88;;;9.81;61.81
61136;BME280;47021;51.340;12.432;2023-02-14T08:07:26;102125.28;;;9.86;61.63
61136;BME280;47021;51.340;12.432;2023-02-14T08:09:53;102130.47;;;10.05;60.86
61136;BME280;47021;51.340;12.432;2023-02-14T08:12:18;102119.78;;;9.92;61.39
61136;BME280;47021;51.340;12.432;2023-02-14T08:14:45;102129.56;;;10.06;61.39
61136;BME280;47021;51.340;12.432;2023-02-14T08:17:10;102139.06;;;10.07;61.24
61136;BME280;47021;51.340;12.432;2023-02-14T08:19:36;102143.84;;;10.16;60.91
61136;BME280;47021;51.340;12.432;2023-02-14T08:22:08;102142.91;;;10.35;60.46
61136;BME280;47021;51.340;12.432;2023-02-14T08:24:34;102144.09;;;10.11;60.82
61136;BME280;47021;51.340;12.432;2023-02-14T08:27:00;102145.69;;;10.14;60.14
61136;BME280;47021;51.340;12.432;2023-02-14T08:29:26;102143.03;;;10.32;60.39
61136;BME280;47021;51.340;12.432;2023-02-14T08:31:51;102140.97;;;10.39;60.51
61136;BME280;47021;51.340;12.432;2023-02-14T08:34:16;102137.72;;;10.34;62.09
61136;BME280;47021;51.340;12.432;2023-02-14T08:36:58;102133.81;;;10.59;62.46
61136;BME280;47021;51.340;12.432;2023-02-14T08:39:25;102132.44;;;10.70;61.50
61136;BME280;47021;51.340;12.432;2023-02-14T08:41:51;102141.44;;;10.97;60.61
61136;BME280;47021;51.340;12.432;2023-02-14T08:44:18;102130.03;;;11.15;59.03
61136;BME280;47021;51.340;12.432;2023-02-14T08:46:43;102131.22;;;11.25;58.00
61136;BME280;47021;51.340;12.432;2023-02-14T08:49:08;102125.69;;;11.14;58.67
61136;BME280;47021;51.340;12.432;2023-02-14T08:51:33;102136.31;;;10.95;59.12
61136;BME280;47021;51.340;12.432;2023-02-14T08:54:00;102130.41;;;11.07;58.55
61136;BME280;47021;51.340;12.432;2023-02-14T08:56:25;102123.53;;;11.06;58.25
61136;BME280;47021;51.340;12.432;2023-02-14T08:58:53;102121.41;;;11.13;58.42
61136;BME280;47021;51.340;12.432;2023-02-14T09:01:31;102129.44;;;11.25;58.29
61136;BME280;47021;51.340;12.432;2023-02-14T09:04:08;102124.75;;;11.32;58.38
61136;BME280;47021;51.340;12.432;2023-02-14T09:09:20;102120.94;;;11.22;58.46
61136;BME280;47021;51.340;12.432;2023-02-14T09:11:45;102123.63;;;11.20;58.11
61136;BME280;47021;51.340;12.432;2023-02-14T09:14:18;102133.66;;;11.28;58.25
61136;BME280;47021;51.340;12.432;2023-02-14T09:16:44;102130.59;;;11.04;58.97
61136;BME280;47021;51.340;12.432;2023-02-14T09:19:10;102126.56;;;11.14;58.43
61136;BME280;47021;51.340;12.432;2023-02-14T09:21:35;102127.91;;;11.21;58.72
61136;BME280;47021;51.340;12.432;2023-02-14T09:24:00;102125.66;;;11.15;58.19
61136;BME280;47021;51.340;12.432;2023-02-14T09:26:25;102129.94;;;11.16;58.35
61136;BME280;47021;51.340;12.432;2023-02-14T09:28:51;102132.06;;;11.25;59.00
61136;BME280;47021;51.340;12.432;2023-02-14T09:31:22;102134.03;;;11.53;57.76
61136;BME280;47021;51.340;12.432;2023-02-14T09:33:50;102140.44;;;11.63;57.58
61136;BME280;47021;51.340;12.432;2023-02-14T09:36:22;102136.53;;;11.39;58.64
61136;BME280;47021;51.340;12.432;2023-02-14T09:38:49;102129.38;;;11.58;58.42
61136;BME280;47021;51.340;12.432;2023-02-14T09:44:00;102128.38;;;11.61;58.40
61136;BME280;47021;51.340;12.432;2023-02-14T09:46:27;102125.91;;;12.04;57.01
61136;BME280;47021;51.340;12.432;2023-02-14T09:48:59;102124.25;;;11.88;57.57
61136;BME280;47021;51.340;12.432;2023-02-14T09:54:12;102121.22;;;12.25;56.99
61136;BME280;47021;51.340;12.432;2023-02-14T09:56:56;102121.06;;;12.42;56.47
61136;BME280;47021;51.340;12.432;2023-02-14T09:59:24;102127.47;;;12.52;55.72
61136;BME280;47021;51.340;12.432;2023-02-14T10:12:33;102123.16;;;12.65;55.38
61136;BME280;47021;51.340;12.432;2023-02-14T10:15:09;102123.72;;;12.56;54.77
61136;BME280;47021;51.340;12.432;2023-02-14T10:20:31;102125.53;;;12.84;55.74
61136;BME280;47021;51.340;12.432;2023-02-14T10:23:01;102124.16;;;13.07;55.06
61136;BME280;47021;51.340;12.432;2023-02-14T10:25:39;102122.91;;;12.84;55.67
61136;BME280;47021;51.340;12.432;2023-02-14T10:28:12;102128.25;;;12.68;55.83
61136;BME280;47021;51.340;12.432;2023-02-14T10:33:40;102114.69;;;13.18;55.15
61136;BME280;47021;51.340;12.432;2023-02-14T10:36:20;102106.25;;;13.41;54.87
61136;BME280;47021;51.340;12.432;2023-02-14T10:49:24;102102.66;;;12.44;56.79
61136;BME280;47021;51.340;12.432;2023-02-14T10:54:38;102103.25;;;12.91;54.83
61136;BME280;47021;51.340;12.432;2023-02-14T10:59:55;102112.13;;;12.46;56.94
61136;BME280;47021;51.340;12.432;2023-02-14T11:05:23;102114.69;;;12.32;56.34
61136;BME280;47021;51.340;12.432;2023-02-14T11:07:59;102108.66;;;12.16;57.49
61136;BME280;47021;51.340;12.432;2023-02-14T11:10:31;102099.25;;;11.98;58.26
61136;BME280;47021;51.340;12.432;2023-02-14T11:13:00;102100.81;;;12.16;57.82
61136;BME280;47021;51.340;12.432;2023-02-14T11:15:36;102100.94;;;12.43;56.96
61136;BME280;47021;51.340;12.432;2023-02-14T11:21:01;102095.66;;;12.15;57.78
61136;BME280;47021;51.340;12.432;2023-02-14T11:23:41;102084.88;;;12.49;56.97
61136;BME280;47021;51.340;12.432;2023-02-14T11:28:58;102082.31;;;11.89;57.74
61136;BME280;47021;51.340;12.432;2023-02-14T11:31:42;102083.81;;;11.93;58.00
61136;BME280;47021;51.340;12.432;2023-02-14T11:34:54;102081.72;;;12.14;57.51
61136;BME280;47021;51.340;12.432;2023-02-14T11:39:58;102064.94;;;12.32;57.48
61136;BME280;47021;51.340;12.432;2023-02-14T11:48:36;102061.28;;;12.35;57.55
61136;BME280;47021;51.340;12.432;2023-02-14T11:50:38;102064.72;;;11.91;57.82
61136;BME280;47021;51.340;12.432;2023-02-14T11:53:05;102058.59;;;12.50;56.86
61136;BME280;47021;51.340;12.432;2023-02-14T11:55:40;102058.19;;;12.42;57.03
61136;BME280;47021;51.340;12.432;2023-02-14T11:58:05;102048.56;;;12.99;55.65
61136;BME280;47021;51.340;12.432;2023-02-14T12:00:32;102043.84;;;13.04;54.88
61136;BME280;47021;51.340;12.432;2023-02-14T12:05:45;102037.28;;;13.39;54.71
61136;BME280;47021;51.340;12.432;2023-02-14T12:08:22;102030.53;;;13.35;54.07
61136;BME280;47021;51.340;12.432;2023-02-14T12:11:04;102032.91;;;13.26;54.82
61136;BME280;47021;51.340;12.432;2023-02-14T12:13:31;102019.84;;;13.65;54.21
61136;BME280;47021;51.340;12.432;2023-02-14T12:15:58;102027.72;;;13.65;54.35
61136;BME280;47021;51.340;12.432;2023-02-14T12:29:01;102007.41;;;13.94;52.98
61136;BME280;47021;51.340;12.432;2023-02-14T12:31:28;102001.81;;;13.86;53.59
61136;BME280;47021;51.340;12.432;2023-02-14T12:33:54;102009.41;;;13.51;54.39
61136;BME280;47021;51.340;12.432;2023-02-14T12:41:53;102002.50;;;13.09;56.43
61136;BME280;47021;51.340;12.432;2023-02-14T12:44:26;102005.34;;;13.33;54.77
61136;BME280;47021;51.340;12.432;2023-02-14T12:57:39;101980.75;;;14.25;56.18
61136;BME280;47021;51.340;12.432;2023-02-14T13:03:08;101973.81;;;14.11;54.33
61136;BME280;47021;51.340;12.432;2023-02-14T13:16:44;101959.75;;;14.38;52.84
61136;BME280;47021;51.340;12.432;2023-02-14T13:21:47;101955.97;;;13.25;55.10
61136;BME280;47021;51.340;12.432;2023-02-14T13:26:55;101946.38;;;13.90;54.79
61136;BME280;47021;51.340;12.432;2023-02-14T13:29:32;101942.78;;;14.16;54.16
61136;BME280;47021;51.340;12.432;2023-02-14T13:32:15;101943.84;;;14.52;51.98
61136;BME280;47021;51.340;12.432;2023-02-14T13:34:58;101950.69;;;14.29;52.58
61136;BME280;47021;51.340;12.432;2023-02-14T13:37:35;101944.91;;;13.86;54.12
61136;BME280;47021;51.340;12.432;2023-02-14T13:40:20;101945.72;;;13.87;53.61
61136;BME280;47021;51.340;12.432;2023-02-14T13:50:49;101944.31;;;13.56;54.08
61136;BME280;47021;51.340;12.432;2023-02-14T13:58:59;101928.56;;;13.56;54.37
61136;BME280;47021;51.340;12.432;2023-02-14T14:04:31;101929.22;;;13.72;54.08
61136;BME280;47021;51.340;12.432;2023-02-14T14:15:14;101925.97;;;14.19;52.55
61136;BME280;47021;51.340;12.432;2023-02-14T14:23:23;101917.16;;;13.95;53.12
61136;BME280;47021;51.340;12.432;2023-02-14T14:25:51;101926.75;;;13.44;53.67
61136;BME280;47021;51.340;12.432;2023-02-14T14:28:20;101921.91;;;13.77;53.19
61136;BME280;47021;51.340;12.432;2023-02-14T14:30:46;101928.00;;;13.90;52.66
61136;BME280;47021;51.340;12.432;2023-02-14T14:33:15;101919.13;;;13.66;52.75
61136;BME280;47021;51.340;12.432;2023-02-14T14:35:52;101915.88;;;13.11;55.14
61136;BME280;47021;51.340;12.432;2023-02-14T14:38:26;101916.66;;;13.77;53.48
61136;BME280;47021;51.340;12.432;2023-02-14T14:40:52;101919.25;;;13.65;53.26
61136;BME280;47021;51.340;12.432;2023-02-14T14:43:31;101916.31;;;13.57;53.97
61136;BME280;47021;51.340;12.432;2023-02-14T14:46:03;101915.38;;;13.83;52.59
61136;BME280;47021;51.340;12.432;2023-02-14T14:48:36;101916.41;;;13.80;53.46
61136;BME280;47021;51.340;12.432;2023-02-14T14:51:03;101911.91;;;13.70;53.09
61136;BME280;47021;51.340;12.432;2023-02-14T14:56:18;101910.53;;;13.89;52.75
61136;BME280;47021;51.340;12.432;2023-02-14T15:01:39;101899.50;;;13.72;53.41
61136;BME280;47021;51.340;12.432;2023-02-14T15:06:48;101898.56;;;13.73;53.19
61136;BME280;47021;51.340;12.432;2023-02-14T15:09:21;101900.41;;;13.45;53.75
61136;BME280;47021;51.340;12.432;2023-02-14T15:12:00;101902.75;;;13.75;53.25
61136;BME280;47021;51.340;12.432;2023-02-14T15:14:29;101899.31;;;13.23;53.56
61136;BME280;47021;51.340;12.432;2023-02-14T15:17:01;101901.38;;;13.18;53.62
61136;BME280;47021;51.340;12.432;2023-02-14T15:19:29;101899.22;;;13.24;54.08
61136;BME280;47021;51.340;12.432;2023-02-14T15:24:41;101893.09;;;13.63;52.94
61136;BME280;47021;51.340;12.432;2023-02-14T15:27:16;101894.09;;;13.09;54.10
61136;BME280;47021;51.340;12.432;2023-02-14T15:32:29;101884.59;;;12.67;54.95
61136;BME280;47021;51.340;12.432;2023-02-14T15:37:39;101881.63;;;12.31;55.60
61136;BME280;47021;51.340;12.432;2023-02-14T15:40:23;101875.63;;;12.57;55.42
61136;BME280;47021;51.340;12.432;2023-02-14T15:45:33;101878.50;;;12.12;56.42
61136;BME280;47021;51.340;12.432;2023-02-14T15:58:41;101869.78;;;11.83;56.58
61136;BME280;47021;51.340;12.432;2023-02-14T16:01:10;101871.28;;;12.01;56.20
61136;BME280;47021;51.340;12.432;2023-02-14T16:03:47;101870.25;;;11.60;57.01
61136;BME280;47021;51.340;12.432;2023-02-14T16:06:28;101880.53;;;11.49;57.66
61136;BME280;47021;51.340;12.432;2023-02-14T16:08:54;101878.66;;;11.37;57.75
61136;BME280;47021;51.340;12.432;2023-02-14T16:11:32;101875.66;;;11.43;57.98
61136;BME280;47021;51.340;12.432;2023-02-14T16:13:58;101872.63;;;11.34;57.53
61136;BME280;47021;51.340;12.432;2023-02-14T16:19:34;101873.84;;;11.29;58.21
61136;BME280;47021;51.340;12.432;2023-02-14T16:22:02;101873.38;;;11.22;57.84
61136;BME280;47021;51.340;12.432;2023-02-14T16:24:35;101872.47;;;11.38;57.63
61136;BME280;47021;51.340;12.432;2023-02-14T16:32:31;101860.44;;;10.90;58.62
61136;BME280;47021;51.340;12.432;2023-02-14T16:35:02;101871.22;;;10.99;58.54
61136;BME280;47021;51.340;12.432;2023-02-14T16:37:31;101870.44;;;10.68;59.13
61136;BME280;47021;51.340;12.432;2023-02-14T16:40:03;101870.41;;;10.52;59.76
61136;BME280;47021;51.340;12.432;2023-02-14T16:42:43;101864.66;;;10.30;60.06
61136;BME280;47021;51.340;12.432;2023-02-14T16:45:17;101862.66;;;10.50;59.59
61136;BME280;47021;51.340;12.432;2023-02-14T16:47:45;101863.00;;;10.60;59.40
61136;BME280;47021;51.340;12.432;2023-02-14T16:50:10;101866.44;;;9.97;61.34
61136;BME280;47021;51.340;12.432;2023-02-14T16:52:35;101867.38;;;10.44;59.77
61136;BME280;47021;51.340;12.432;2023-02-14T16:55:02;101869.94;;;10.61;59.25
61136;BME280;47021;51.340;12.432;2023-02-14T16:57:42;101861.91;;;10.64;58.89
61136;BME280;47021;51.340;12.432;2023-02-14T17:00:11;101866.97;;;10.36;59.86
61136;BME280;47021;51.340;12.432;2023-02-14T17:02:39;101871.16;;;10.38;59.83
61136;BME280;47021;51.340;12.432;2023-02-14T17:05:04;101870.22;;;10.24;59.85
61136;BME280;47021;51.340;12.432;2023-02-14T17:07:31;101876.28;;;9.91;61.04
61136;BME280;47021;51.340;12.432;2023-02-14T17:10:09;101876.19;;;9.93;61.12
61136;BME280;47021;51.340;12.432;2023-02-14T17:12:36;101877.56;;;10.00;60.79
61136;BME280;47021;51.340;12.432;2023-02-14T17:15:04;101876.63;;;10.01;60.67
61136;BME280;47021;51.340;12.432;2023-02-14T17:17:33;101883.78;;;10.15;59.90
61136;BME280;47021;51.340;12.432;2023-02-14T17:20:17;101877.16;;;10.08;60.23
61136;BME280;47021;51.340;12.432;2023-02-14T17:22:55;101873.38;;;9.80;61.01
61136;BME280;47021;51.340;12.432;2023-02-14T17:28:05;101871.88;;;9.59;61.34
61136;BME280;47021;51.340;12.432;2023-02-14T17:30:31;101876.25;;;9.42;62.04
61136;BME280;47021;51.340;12.432;2023-02-14T17:32:58;101878.59;;;9.63;61.44
61136;BME280;47021;51.340;12.432;2023-02-14T17:35:32;101873.91;;;9.70;61.25
61136;BME280;47021;51.340;12.432;2023-02-14T17:37:57;101871.03;;;9.59;61.25
61136;BME280;47021;51.340;12.432;2023-02-14T17:43:06;101874.94;;;9.50;61.38
61136;BME280;47021;51.340;12.432;2023-02-14T17:45:31;101877.03;;;9.44;61.35
61136;BME280;47021;51.340;12.432;2023-02-14T17:47:57;101878.94;;;9.23;61.96